Terminal Aerodrome Forecast
Issued by NWS Pueblo, CO

Home | Current Version | Previous Version | Text Only | Print | Product List | Glossary On
Versions: 1 2 3 4 5 6 7 8 9 10 11 12 13
000
FTUS45 KPUB 291120
TAFPUB
TAF
KPUB 291120Z 2912/3012 02007KT P6SM SCT250
     FM291800 13007KT P6SM SCT250
     FM292100 13012KT P6SM FEW120 BKN250
     FM300200 09008KT P6SM SCT120 BKN250
     FM300700 01007KT P6SM SCT120 BKN200=

USA.gov is the U.S. government's official web portal to all federal, state and local government web resources and services.